Time;durP1;ratioP1;P1;durP2;ratioP2;P2;SDS_P1;SDS_P2;PMS_P1;PMS_P2;Temp;Humidity;BMP_temperature;BMP_pressure;BME280_temperature;BME280_humidity;BME280_pressure;Samples;Min_cycle;Max_cycle;Signal;HPM_P1;HPM_P2
2023/11/01 00:01:18;;;;;;;7.75;1.58;;;12.40;99.90;;;;;;4923665;28;88939;-75
2023/11/01 00:03:45;;;;;;;8.93;1.38;;;12.30;99.90;;;;;;4921716;28;91371;-76
2023/11/01 00:06:10;;;;;;;5.07;1.40;;;12.30;99.90;;;;;;4922572;28;89230;-76
2023/11/01 00:08:36;;;;;;;8.80;1.63;;;12.30;99.90;;;;;;4928481;28;87382;-77
2023/11/01 00:11:02;;;;;;;5.78;1.30;;;12.30;99.90;;;;;;4926052;28;90485;-77
2023/11/01 00:13:27;;;;;;;14.18;2.40;;;12.30;99.90;;;;;;4927061;28;89268;-76
2023/11/01 00:15:53;;;;;;;7.60;1.77;;;12.30;99.90;;;;;;4933007;28;88417;-76
2023/11/01 00:18:19;;;;;;;11.55;1.42;;;12.30;99.90;;;;;;4927639;28;88357;-76
2023/11/01 00:20:44;;;;;;;7.95;1.75;;;12.20;99.90;;;;;;4927064;28;90854;-77
2023/11/01 00:23:10;;;;;;;8.10;1.67;;;12.20;99.90;;;;;;4922877;28;91498;-76
2023/11/01 00:25:36;;;;;;;7.13;1.50;;;12.20;99.90;;;;;;4926970;28;87857;-75
2023/11/01 00:28:01;;;;;;;6.18;1.42;;;12.20;99.90;;;;;;4925058;28;87772;-76
2023/11/01 00:30:27;;;;;;;11.18;1.85;;;12.20;99.90;;;;;;4927066;28;87515;-76
2023/11/01 00:32:55;;;;;;;7.43;1.15;;;12.20;99.90;;;;;;4924003;28;88462;-76
2023/11/01 00:35:20;;;;;;;9.15;1.40;;;12.20;99.90;;;;;;4929192;28;88486;-76
2023/11/01 00:37:46;;;;;;;6.18;1.67;;;12.10;99.90;;;;;;4922077;28;88528;-76
2023/11/01 00:40:14;;;;;;;6.30;1.35;;;12.20;99.90;;;;;;4924551;28;88593;-77
2023/11/01 00:42:40;;;;;;;8.73;1.35;;;12.20;99.90;;;;;;4937251;28;91130;-77
2023/11/01 00:45:06;;;;;;;8.30;1.50;;;12.20;99.90;;;;;;4922163;28;88126;-77
2023/11/01 00:47:34;;;;;;;4.43;1.50;;;12.10;99.90;;;;;;4922883;28;88002;-78
2023/11/01 00:50:00;;;;;;;4.65;1.08;;;12.10;99.90;;;;;;4922648;28;91519;-78
2023/11/01 00:52:26;;;;;;;13.55;1.92;;;12.10;99.90;;;;;;4921978;28;89437;-77
2023/11/01 00:54:51;;;;;;;10.52;1.45;;;12.10;99.90;;;;;;4920965;28;90376;-77
2023/11/01 00:57:18;;;;;;;4.88;1.30;;;12.10;99.90;;;;;;4923115;28;88103;-77
2023/11/01 00:59:46;;;;;;;10.15;1.08;;;12.10;99.90;;;;;;4920905;28;91271;-77
2023/11/01 01:02:12;;;;;;;7.35;0.85;;;12.10;99.90;;;;;;4923364;28;89220;-78
2023/11/01 01:04:37;;;;;;;6.20;1.15;;;12.10;99.90;;;;;;4921707;28;91160;-78
2023/11/01 01:07:03;;;;;;;7.40;1.50;;;12.10;99.90;;;;;;4923235;28;87611;-78
2023/11/01 01:09:32;;;;;;;6.40;1.23;;;12.10;99.90;;;;;;4922931;28;88127;-78
2023/11/01 01:11:57;;;;;;;9.18;1.20;;;12.00;99.90;;;;;;4922391;28;88946;-78
2023/11/01 01:14:23;;;;;;;6.38;1.20;;;12.00;99.90;;;;;;4923995;28;88406;-77
2023/11/01 01:16:49;;;;;;;9.43;1.48;;;12.00;99.90;;;;;;4922292;28;87707;-77
2023/11/01 01:19:15;;;;;;;3.75;1.00;;;12.00;99.90;;;;;;4923397;28;87447;-77
2023/11/01 01:21:43;;;;;;;8.43;1.48;;;11.90;99.90;;;;;;4922260;28;88070;-77
2023/11/01 01:24:08;;;;;;;7.78;1.20;;;12.00;99.90;;;;;;4922569;28;88664;-77
2023/11/01 01:26:34;;;;;;;8.20;1.67;;;12.00;99.90;;;;;;4922846;28;88782;-77
2023/11/01 01:29:00;;;;;;;5.35;1.35;;;12.00;99.90;;;;;;4923577;28;88978;-76
2023/11/01 01:31:25;;;;;;;8.75;1.25;;;12.00;99.90;;;;;;4923377;28;88749;-77
2023/11/01 01:33:51;;;;;;;8.27;1.30;;;11.90;99.90;;;;;;4920252;28;89969;-77
2023/11/01 01:36:17;;;;;;;7.55;1.08;;;11.90;99.90;;;;;;4923762;28;87645;-77
2023/11/01 01:38:42;;;;;;;9.75;1.15;;;11.90;99.90;;;;;;4919989;28;89488;-76
2023/11/01 01:41:08;;;;;;;7.47;1.70;;;11.90;99.90;;;;;;4923544;28;87775;-78
2023/11/01 01:43:33;;;;;;;4.78;0.85;;;11.90;99.90;;;;;;4903635;28;91059;-77
2023/11/01 01:46:14;;;;;;;5.03;1.13;;;11.90;99.90;;;;;;4921694;28;87806;-78
2023/11/01 01:48:44;;;;;;;7.00;1.33;;;11.90;99.90;;;;;;4918786;28;90059;-78
2023/11/01 01:51:14;;;;;;;5.55;1.38;;;11.90;99.90;;;;;;4922565;28;91631;-78
2023/11/01 01:53:42;;;;;;;4.82;1.70;;;11.90;99.90;;;;;;4922687;28;90146;-78
2023/11/01 01:56:08;;;;;;;6.53;1.13;;;11.90;99.90;;;;;;4921359;28;87755;-78
2023/11/01 01:58:44;;;;;;;8.70;1.10;;;11.90;99.90;;;;;;4923294;28;88358;-78
2023/11/01 02:01:10;;;;;;;6.82;1.20;;;11.90;99.90;;;;;;4922183;28;89235;-78
2023/11/01 02:03:36;;;;;;;5.53;1.55;;;12.00;99.90;;;;;;4919720;28;91540;-77
2023/11/01 02:06:03;;;;;;;8.65;1.40;;;12.00;99.90;;;;;;4919905;28;87809;-78
2023/11/01 02:08:29;;;;;;;6.38;1.45;;;12.00;99.90;;;;;;4922155;28;88506;-78
2023/11/01 02:10:56;;;;;;;7.35;1.30;;;12.00;99.90;;;;;;4922744;28;91597;-79
2023/11/01 02:13:22;;;;;;;6.40;1.10;;;12.00;99.90;;;;;;4922838;28;88006;-79
2023/11/01 02:15:51;;;;;;;3.50;1.58;;;12.00;99.90;;;;;;4920859;28;88884;-79
2023/11/01 02:18:17;;;;;;;5.60;1.15;;;12.00;99.90;;;;;;4919558;28;88029;-78
2023/11/01 02:20:46;;;;;;;5.43;1.13;;;12.00;99.90;;;;;;4923130;28;90799;-78
2023/11/01 02:23:13;;;;;;;11.40;1.73;;;12.00;99.90;;;;;;4924242;28;88244;-77
2023/11/01 02:25:40;;;;;;;7.13;1.20;;;12.10;99.90;;;;;;4921947;28;88107;-78
2023/11/01 02:28:10;;;;;;;5.78;1.27;;;12.00;99.90;;;;;;4923254;28;87456;-77
2023/11/01 02:30:37;;;;;;;5.20;1.50;;;12.10;99.90;;;;;;4921882;28;87990;-78
2023/11/01 02:33:02;;;;;;;5.43;1.15;;;12.10;99.90;;;;;;4920122;28;88705;-77
2023/11/01 02:35:28;;;;;;;7.32;1.08;;;12.10;99.90;;;;;;4921352;28;87715;-77
2023/11/01 02:37:54;;;;;;;7.45;1.33;;;12.10;99.90;;;;;;4920633;28;90275;-77
2023/11/01 02:40:22;;;;;;;5.93;1.15;;;12.20;99.90;;;;;;4921987;28;90148;-77
2023/11/01 02:42:51;;;;;;;7.45;1.40;;;12.20;99.90;;;;;;4919153;28;94909;-77
2023/11/01 02:45:17;;;;;;;6.15;1.33;;;12.20;99.90;;;;;;4919990;28;88196;-78
2023/11/01 02:47:43;;;;;;;5.93;1.52;;;12.20;99.90;;;;;;4921632;28;87844;-77
2023/11/01 02:50:11;;;;;;;10.27;2.13;;;12.20;99.90;;;;;;4921115;28;89609;-77
2023/11/01 02:52:38;;;;;;;14.65;1.77;;;12.30;99.90;;;;;;4922630;28;88044;-77
2023/11/01 02:55:07;;;;;;;7.55;1.85;;;12.30;99.90;;;;;;4920247;28;87748;-77
2023/11/01 02:57:33;;;;;;;13.05;2.00;;;12.30;99.90;;;;;;4921331;28;88768;-77
2023/11/01 02:59:59;;;;;;;11.13;1.50;;;12.40;99.90;;;;;;4920871;28;90619;-76
2023/11/01 03:02:25;;;;;;;11.65;2.33;;;12.40;99.90;;;;;;4925102;28;88421;-76
2023/11/01 03:04:51;;;;;;;8.95;2.05;;;12.50;99.90;;;;;;4927231;28;88495;-77
2023/11/01 03:07:17;;;;;;;9.60;1.50;;;12.50;99.90;;;;;;4925552;28;91246;-76
2023/11/01 03:09:43;;;;;;;8.10;1.63;;;12.50;99.90;;;;;;4926760;28;89638;-76
2023/11/01 03:12:09;;;;;;;7.80;2.03;;;12.60;99.90;;;;;;4926808;28;89890;-77
2023/11/01 03:14:38;;;;;;;11.15;1.77;;;12.50;99.90;;;;;;4925745;28;88054;-77
2023/11/01 03:17:07;;;;;;;10.75;1.73;;;12.50;99.90;;;;;;4929322;28;88111;-76
2023/11/01 03:19:33;;;;;;;10.63;1.95;;;12.60;99.90;;;;;;4934951;28;90624;-76
2023/11/01 03:21:58;;;;;;;15.02;2.00;;;12.60;99.90;;;;;;4933943;28;88479;-76
2023/11/01 03:24:24;;;;;;;11.75;1.80;;;12.60;99.90;;;;;;4937149;28;87883;-76
2023/11/01 03:26:50;;;;;;;10.45;1.83;;;12.60;99.90;;;;;;4934258;28;88169;-76
2023/11/01 03:29:16;;;;;;;11.65;1.55;;;12.70;99.90;;;;;;4934320;28;90311;-76
2023/11/01 03:31:43;;;;;;;15.25;1.95;;;12.70;99.90;;;;;;4937733;28;88375;-76
2023/11/01 03:34:09;;;;;;;15.23;1.80;;;12.70;99.90;;;;;;4950729;28;88061;-76
2023/11/01 03:36:34;;;;;;;12.23;1.70;;;12.70;99.90;;;;;;4933344;28;89367;-76
2023/11/01 03:39:00;;;;;;;7.97;1.63;;;12.80;99.90;;;;;;4935630;28;88328;-76
2023/11/01 03:41:26;;;;;;;11.95;1.67;;;12.80;99.90;;;;;;4933134;28;88162;-76
2023/11/01 03:43:51;;;;;;;18.15;2.35;;;12.80;99.90;;;;;;4923578;28;88567;-76
2023/11/01 03:46:17;;;;;;;11.05;1.85;;;12.80;99.90;;;;;;4925525;28;87877;-75
2023/11/01 03:48:43;;;;;;;17.13;2.25;;;12.80;99.90;;;;;;4924627;28;87828;-76
2023/11/01 03:51:09;;;;;;;12.57;1.75;;;12.80;99.90;;;;;;4922654;28;89752;-76
2023/11/01 03:53:34;;;;;;;10.50;1.60;;;12.80;99.90;;;;;;4924907;28;88689;-76
2023/11/01 03:56:02;;;;;;;11.27;1.83;;;12.80;99.90;;;;;;4923611;28;87674;-76
2023/11/01 03:58:30;;;;;;;24.05;2.80;;;12.90;99.90;;;;;;4921239;28;91575;-76
2023/11/01 04:00:56;;;;;;;12.38;1.92;;;12.80;99.90;;;;;;4924475;28;88419;-77
2023/11/01 04:03:23;;;;;;;16.95;1.77;;;12.90;99.90;;;;;;4924922;28;88180;-76
2023/11/01 04:05:49;;;;;;;8.57;1.58;;;12.90;99.90;;;;;;4923738;28;88089;-76
2023/11/01 04:08:15;;;;;;;14.98;1.95;;;12.90;99.90;;;;;;4924075;28;88726;-75
2023/11/01 04:10:40;;;;;;;12.13;2.28;;;12.90;99.90;;;;;;4921897;28;92890;-75
2023/11/01 04:13:06;;;;;;;12.50;1.52;;;12.90;99.90;;;;;;4921463;28;87637;-76
2023/11/01 04:15:32;;;;;;;11.07;1.98;;;12.90;99.90;;;;;;4921499;28;88429;-76
2023/11/01 04:17:58;;;;;;;11.00;1.90;;;12.90;99.90;;;;;;4919435;28;91358;-76
2023/11/01 04:20:24;;;;;;;13.73;1.80;;;12.90;99.90;;;;;;4921664;28;92661;-76
2023/11/01 04:22:51;;;;;;;12.65;2.45;;;12.90;99.90;;;;;;4921895;28;88128;-76
2023/11/01 04:25:17;;;;;;;14.75;2.20;;;12.90;99.90;;;;;;4923345;28;87971;-76
2023/11/01 04:27:44;;;;;;;12.13;1.60;;;13.00;99.90;;;;;;4923687;28;88262;-75
2023/11/01 04:30:12;;;;;;;14.45;1.92;;;13.00;99.90;;;;;;4923631;28;88828;-76
2023/11/01 04:32:38;;;;;;;13.57;2.08;;;13.00;99.90;;;;;;4921645;28;87618;-76
2023/11/01 04:35:09;;;;;;;13.63;2.30;;;13.00;99.90;;;;;;4924868;28;87521;-77
2023/11/01 04:37:38;;;;;;;14.07;1.80;;;13.00;99.90;;;;;;4921529;28;90592;-75
2023/11/01 04:40:11;;;;;;;14.07;1.55;;;13.00;99.90;;;;;;4922194;28;87971;-76
2023/11/01 04:42:40;;;;;;;12.32;2.08;;;13.00;99.90;;;;;;4922020;28;88426;-77
2023/11/01 04:45:15;;;;;;;16.00;2.13;;;13.00;99.90;;;;;;4913746;28;90487;-76
2023/11/01 04:47:42;;;;;;;12.25;1.38;;;12.90;99.90;;;;;;4919794;28;91713;-76
2023/11/01 04:50:09;;;;;;;24.20;2.55;;;12.90;99.90;;;;;;4923255;28;88419;-76
2023/11/01 04:52:35;;;;;;;17.08;2.42;;;12.80;99.90;;;;;;4921241;28;88253;-75
2023/11/01 04:55:04;;;;;;;15.95;2.25;;;12.80;99.90;;;;;;4921930;28;87456;-76
2023/11/01 04:57:30;;;;;;;15.00;1.80;;;12.80;99.90;;;;;;4920011;28;90507;-76
2023/11/01 04:59:56;;;;;;;12.52;1.80;;;12.70;99.90;;;;;;4920613;28;90333;-75
2023/11/01 05:02:22;;;;;;;15.32;2.03;;;12.70;99.90;;;;;;4923142;28;88008;-76
2023/11/01 05:04:47;;;;;;;12.10;2.38;;;12.70;99.90;;;;;;4920348;28;89009;-76
2023/11/01 05:07:13;;;;;;;15.50;2.10;;;12.60;99.90;;;;;;4921446;28;94016;-76
2023/11/01 05:09:39;;;;;;;13.10;2.20;;;12.60;99.90;;;;;;4922799;28;93163;-76
2023/11/01 05:12:05;;;;;;;12.88;1.80;;;12.60;99.90;;;;;;4928099;28;87611;-75
2023/11/01 05:14:30;;;;;;;10.40;1.65;;;12.50;99.90;;;;;;4925941;28;87613;-76
2023/11/01 05:16:56;;;;;;;16.92;2.28;;;12.60;99.90;;;;;;4903538;28;88028;-76
2023/11/01 05:19:22;;;;;;;21.75;2.05;;;12.50;99.90;;;;;;4916993;28;88983;-75
2023/11/01 05:21:48;;;;;;;10.57;2.13;;;12.50;99.90;;;;;;4920553;28;87920;-76
2023/11/01 05:24:21;;;;;;;17.98;2.25;;;12.50;99.90;;;;;;4921019;28;86970;-75
2023/11/01 05:26:47;;;;;;;13.65;1.73;;;12.50;99.90;;;;;;4921372;28;88738;-76
2023/11/01 05:29:14;;;;;;;12.00;2.45;;;12.60;99.90;;;;;;4921955;28;88609;-76
2023/11/01 05:31:39;;;;;;;14.73;1.60;;;12.50;99.90;;;;;;4925532;28;89114;-76
2023/11/01 05:34:05;;;;;;;11.00;2.85;;;12.50;99.90;;;;;;4921735;28;89915;-76
2023/11/01 05:36:31;;;;;;;18.27;2.30;;;12.50;99.90;;;;;;4921075;28;91982;-75
2023/11/01 05:38:57;;;;;;;9.05;1.48;;;12.50;99.90;;;;;;4920798;28;91415;-76
2023/11/01 05:41:23;;;;;;;13.20;1.77;;;12.50;99.90;;;;;;4919958;28;87743;-76
2023/11/01 05:43:48;;;;;;;9.60;1.40;;;12.50;99.90;;;;;;4921363;28;87800;-75
2023/11/01 05:46:18;;;;;;;14.60;1.92;;;12.60;99.90;;;;;;4920699;28;88119;-76
2023/11/01 05:48:45;;;;;;;10.20;1.95;;;12.60;99.90;;;;;;4921196;28;88532;-76
2023/11/01 05:51:10;;;;;;;14.77;1.45;;;12.60;99.90;;;;;;4920788;28;87775;-76
2023/11/01 05:53:36;;;;;;;16.05;1.48;;;12.60;99.90;;;;;;4922815;28;88079;-76
2023/11/01 05:56:02;;;;;;;18.92;1.90;;;12.60;99.90;;;;;;4921579;28;89440;-76
2023/11/01 05:58:28;;;;;;;16.42;1.88;;;12.60;99.90;;;;;;4920072;28;91856;-76
2023/11/01 06:00:54;;;;;;;12.65;1.33;;;12.60;99.90;;;;;;4921726;28;87399;-75
2023/11/01 06:03:20;;;;;;;11.40;1.52;;;12.70;99.90;;;;;;4921657;28;88041;-75
2023/11/01 06:05:46;;;;;;;8.38;1.52;;;12.60;99.90;;;;;;4921555;28;87975;-75
2023/11/01 06:08:12;;;;;;;14.27;2.03;;;12.70;99.90;;;;;;4921923;28;88598;-76
2023/11/01 06:10:39;;;;;;;15.52;2.30;;;12.70;99.90;;;;;;4920525;28;87837;-76
2023/11/01 06:13:07;;;;;;;12.98;1.85;;;12.70;99.90;;;;;;4921186;28;87856;-75
2023/11/01 06:15:36;;;;;;;14.50;1.48;;;12.70;99.90;;;;;;4918914;28;91909;-75
2023/11/01 06:18:05;;;;;;;10.35;1.55;;;12.70;99.90;;;;;;4920455;28;88640;-76
2023/11/01 06:20:53;;;;;;;11.55;1.38;;;12.70;99.90;;;;;;4921861;28;88669;-75
2023/11/01 06:23:18;;;;;;;13.30;1.55;;;12.70;99.90;;;;;;4919219;28;94540;-75
2023/11/01 06:25:44;;;;;;;13.32;1.58;;;12.70;99.90;;;;;;4920745;28;90531;-76
2023/11/01 06:28:10;;;;;;;8.75;1.65;;;12.60;99.90;;;;;;4921638;28;89541;-75
2023/11/01 06:30:35;;;;;;;17.17;1.58;;;12.60;99.90;;;;;;4921081;28;88143;-76
2023/11/01 06:33:01;;;;;;;14.38;2.00;;;12.60;99.90;;;;;;4919546;28;88915;-75
2023/11/01 06:35:27;;;;;;;14.10;1.23;;;12.60;99.90;;;;;;4921219;28;89115;-75
2023/11/01 06:37:52;;;;;;;12.88;1.55;;;12.60;99.90;;;;;;4925218;28;87049;-75
2023/11/01 06:40:18;;;;;;;8.75;1.52;;;12.60;99.90;;;;;;4909975;28;87692;-75
2023/11/01 06:42:44;;;;;;;10.60;1.40;;;12.60;99.90;;;;;;4912949;28;91609;-75
2023/11/01 06:45:11;;;;;;;9.90;1.27;;;12.50;99.90;;;;;;4922822;28;89829;-76
2023/11/01 06:47:40;;;;;;;8.52;2.10;;;12.50;99.90;;;;;;4924151;28;89533;-76
2023/11/01 06:50:06;;;;;;;12.13;1.67;;;12.50;99.90;;;;;;4922829;28;87996;-75
2023/11/01 06:52:32;;;;;;;14.23;1.35;;;12.50;99.90;;;;;;4920852;28;89342;-75
2023/11/01 06:54:57;;;;;;;11.93;1.00;;;12.50;99.90;;;;;;4923080;28;89169;-75
2023/11/01 06:57:23;;;;;;;14.05;1.35;;;12.50;99.90;;;;;;4923122;28;89015;-75
2023/11/01 06:59:48;;;;;;;17.85;1.73;;;12.50;99.90;;;;;;4923824;28;87718;-76
2023/11/01 07:02:14;;;;;;;7.45;1.17;;;12.60;99.90;;;;;;4923898;28;89233;-75
2023/11/01 07:04:40;;;;;;;6.47;1.65;;;12.60;99.90;;;;;;4923973;28;88269;-75
2023/11/01 07:07:05;;;;;;;16.35;2.15;;;12.60;99.90;;;;;;4922416;28;91470;-76
2023/11/01 07:09:34;;;;;;;15.20;1.80;;;12.60;99.90;;;;;;4922006;28;89577;-76
2023/11/01 07:12:03;;;;;;;15.35;1.58;;;12.70;99.90;;;;;;4924795;28;87811;-75
2023/11/01 07:14:29;;;;;;;15.02;1.50;;;12.70;99.90;;;;;;4922647;28;91479;-75
2023/11/01 07:16:54;;;;;;;14.73;1.70;;;12.70;99.90;;;;;;4921666;28;92552;-75
2023/11/01 07:19:20;;;;;;;8.13;1.67;;;12.70;99.90;;;;;;4923565;28;87700;-75
2023/11/01 07:21:46;;;;;;;13.63;1.58;;;12.80;99.90;;;;;;4920813;28;92069;-75
2023/11/01 07:24:13;;;;;;;12.65;1.67;;;12.80;99.90;;;;;;4922023;28;88173;-75
2023/11/01 07:26:39;;;;;;;10.63;1.50;;;12.80;99.90;;;;;;4923869;28;87415;-75
2023/11/01 07:29:04;;;;;;;7.20;1.10;;;12.80;99.90;;;;;;4924704;28;88083;-75
2023/11/01 07:31:30;;;;;;;12.30;1.50;;;12.90;99.90;;;;;;4923609;28;87656;-75
2023/11/01 07:33:56;;;;;;;10.68;1.23;;;12.90;99.90;;;;;;4920805;28;92232;-75
2023/11/01 07:36:22;;;;;;;13.45;1.85;;;12.90;99.90;;;;;;4923626;28;91091;-75
2023/11/01 07:38:47;;;;;;;12.88;2.40;;;13.00;99.90;;;;;;4922047;28;87930;-75
2023/11/01 07:41:15;;;;;;;6.80;1.35;;;13.00;99.90;;;;;;4924086;28;88106;-75
2023/11/01 07:43:41;;;;;;;7.00;1.23;;;13.00;99.90;;;;;;4937888;28;91860;-75
2023/11/01 07:46:08;;;;;;;8.80;1.35;;;13.00;99.90;;;;;;4920524;28;91993;-75
2023/11/01 07:48:35;;;;;;;10.15;1.52;;;13.10;99.90;;;;;;4921150;28;88021;-75
2023/11/01 07:51:07;;;;;;;11.35;1.35;;;13.10;99.90;;;;;;4922493;28;88169;-75
2023/11/01 07:53:33;;;;;;;9.82;1.50;;;13.10;99.90;;;;;;4923533;28;88116;-75
2023/11/01 07:55:59;;;;;;;4.68;1.30;;;13.10;99.90;;;;;;4921932;28;93338;-75
2023/11/01 07:58:25;;;;;;;9.23;1.40;;;13.10;99.90;;;;;;4922753;28;88891;-75
2023/11/01 08:00:51;;;;;;;9.18;1.83;;;13.10;99.90;;;;;;4925082;28;87951;-75
2023/11/01 08:03:18;;;;;;;10.95;1.45;;;13.10;99.90;;;;;;4924204;28;88417;-75
2023/11/01 08:05:44;;;;;;;9.85;2.08;;;13.10;99.90;;;;;;4923636;28;88471;-75
2023/11/01 08:08:10;;;;;;;17.60;1.73;;;13.10;99.90;;;;;;4923407;28;87412;-77
2023/11/01 08:10:36;;;;;;;14.07;1.73;;;13.10;99.90;;;;;;4922289;28;88114;-76
2023/11/01 08:13:02;;;;;;;8.85;2.05;;;13.10;99.90;;;;;;4921969;28;91145;-75
2023/11/01 08:15:27;;;;;;;9.07;1.90;;;13.10;99.90;;;;;;4923186;28;87141;-76
2023/11/01 08:17:53;;;;;;;13.00;1.98;;;13.20;99.90;;;;;;4923919;28;87650;-76
2023/11/01 08:20:19;;;;;;;12.50;2.25;;;13.20;99.90;;;;;;4924482;28;88326;-75
2023/11/01 08:22:45;;;;;;;14.95;2.15;;;13.20;99.90;;;;;;4921204;28;93870;-76
2023/11/01 08:25:32;;;;;;;;;;;;;;;;;;;;;
2023/11/01 08:28:01;;;;;;;15.00;2.65;;;13.20;99.90;;;;;;4923150;28;109118;-75
2023/11/01 08:30:27;;;;;;;13.70;1.88;;;13.20;99.90;;;;;;4922152;28;90858;-75
2023/11/01 08:32:53;;;;;;;6.78;1.98;;;13.20;99.90;;;;;;4922168;28;95207;-75
2023/11/01 08:35:19;;;;;;;16.02;2.20;;;13.30;99.90;;;;;;4924537;28;88469;-75
2023/11/01 08:37:45;;;;;;;9.00;1.70;;;13.30;99.90;;;;;;4922100;28;87982;-75
2023/11/01 08:40:11;;;;;;;11.18;2.67;;;13.30;99.90;;;;;;4924384;28;89498;-76
2023/11/01 08:42:41;;;;;;;9.98;1.83;;;13.30;99.90;;;;;;4924797;28;88390;-75
2023/11/01 08:45:07;;;;;;;13.30;1.85;;;13.40;99.90;;;;;;4905312;28;93410;-75
2023/11/01 08:47:36;;;;;;;7.45;1.55;;;13.40;99.90;;;;;;4922546;28;88742;-72
2023/11/01 08:50:02;;;;;;;10.23;2.22;;;13.40;99.90;;;;;;4919933;28;93848;-75
2023/11/01 08:52:29;;;;;;;8.38;2.08;;;13.50;99.90;;;;;;4922009;28;90261;-74
2023/11/01 08:54:57;;;;;;;12.93;1.77;;;13.60;99.90;;;;;;4920080;28;89681;-74
2023/11/01 08:57:22;;;;;;;9.38;1.52;;;13.70;99.90;;;;;;4919020;28;88054;-76
2023/11/01 08:59:52;;;;;;;14.30;1.52;;;13.70;99.90;;;;;;4920682;28;87460;-75
2023/11/01 09:02:18;;;;;;;8.00;1.48;;;13.90;99.90;;;;;;4922188;28;88385;-75
2023/11/01 09:04:54;;;;;;;8.90;1.70;;;14.00;99.90;;;;;;4922475;28;87829;-75
2023/11/01 09:07:21;;;;;;;11.98;1.38;;;14.00;99.90;;;;;;4936011;28;87568;-75
2023/11/01 09:09:56;;;;;;;8.13;1.40;;;14.10;99.90;;;;;;4922598;28;88461;-75
2023/11/01 09:12:22;;;;;;;11.35;1.83;;;14.20;99.90;;;;;;4921515;28;90817;-75
2023/11/01 09:14:50;;;;;;;17.38;1.75;;;14.30;99.90;;;;;;4921951;28;87829;-76
2023/11/01 09:17:16;;;;;;;7.63;1.33;;;14.30;99.90;;;;;;4922706;28;87841;-75
2023/11/01 09:19:42;;;;;;;7.30;0.93;;;14.40;99.90;;;;;;4921576;28;87448;-75
2023/11/01 09:22:08;;;;;;;11.45;1.23;;;14.40;99.90;;;;;;4919840;28;91359;-76
2023/11/01 09:24:34;;;;;;;6.68;1.00;;;14.40;99.90;;;;;;4922025;28;87809;-76
2023/11/01 09:27:01;;;;;;;11.73;1.58;;;14.40;99.90;;;;;;4920785;28;88114;-75
2023/11/01 09:29:29;;;;;;;10.15;1.35;;;14.50;99.90;;;;;;4921620;28;90969;-75
2023/11/01 09:32:08;;;;;;;6.20;0.88;;;14.60;99.90;;;;;;4920569;28;88216;-76
2023/11/01 09:34:34;;;;;;;10.15;1.13;;;14.60;99.90;;;;;;4918397;28;91567;-75
2023/11/01 09:36:59;;;;;;;10.93;1.30;;;14.60;99.90;;;;;;4917693;28;89060;-75
2023/11/01 09:39:26;;;;;;;10.18;1.42;;;14.60;99.90;;;;;;4916818;28;88806;-76
2023/11/01 09:42:11;;;;;;;9.10;1.10;;;14.70;99.90;;;;;;4917078;28;89688;-76
2023/11/01 09:44:38;;;;;;;9.40;0.90;;;14.70;99.90;;;;;;4919850;28;87868;-75
2023/11/01 09:47:04;;;;;;;7.22;1.52;;;14.70;99.90;;;;;;4919225;28;87924;-74
2023/11/01 09:49:31;;;;;;;8.82;1.15;;;14.70;99.90;;;;;;4919300;28;91676;-76
2023/11/01 09:52:02;;;;;;;4.15;0.85;;;14.70;99.90;;;;;;4920347;28;88104;-75
2023/11/01 09:54:30;;;;;;;12.10;1.13;;;14.60;99.90;;;;;;4920607;28;88250;-74
2023/11/01 09:56:57;;;;;;;7.57;1.50;;;14.60;99.90;;;;;;4919894;28;87909;-76
2023/11/01 09:59:23;;;;;;;7.72;0.82;;;14.60;99.90;;;;;;4920300;28;88714;-75
2023/11/01 10:01:49;;;;;;;8.88;1.73;;;14.70;99.90;;;;;;4920182;28;89081;-75
2023/11/01 10:04:15;;;;;;;5.35;1.17;;;14.80;99.90;;;;;;4918972;28;90778;-76
2023/11/01 10:06:43;;;;;;;9.57;1.25;;;14.80;99.90;;;;;;4917051;28;87986;-75
2023/11/01 10:09:09;;;;;;;5.75;0.90;;;14.80;99.90;;;;;;4919214;28;87887;-75
2023/11/01 10:11:35;;;;;;;10.85;1.30;;;14.90;99.90;;;;;;4923896;28;88940;-75
2023/11/01 10:14:01;;;;;;;6.10;0.90;;;14.90;99.90;;;;;;4924595;28;90059;-74
2023/11/01 10:16:27;;;;;;;9.20;1.17;;;15.00;99.90;;;;;;4924123;28;87666;-74
2023/11/01 10:18:54;;;;;;;8.18;1.38;;;15.00;99.90;;;;;;4924205;28;87402;-75
2023/11/01 10:21:21;;;;;;;9.63;1.05;;;14.90;99.90;;;;;;4922786;28;89706;-75
2023/11/01 10:23:51;;;;;;;5.70;1.20;;;14.90;99.90;;;;;;4921360;28;89760;-75
2023/11/01 10:26:16;;;;;;;8.10;1.02;;;14.80;99.90;;;;;;4925822;28;88659;-76
2023/11/01 10:28:42;;;;;;;4.60;0.85;;;14.90;99.90;;;;;;4925703;28;87784;-78
2023/11/01 10:31:12;;;;;;;6.03;0.80;;;14.90;99.90;;;;;;4924146;28;87638;-76
2023/11/01 10:33:43;;;;;;;8.95;1.02;;;14.90;99.90;;;;;;4921700;28;88921;-76
2023/11/01 10:36:09;;;;;;;6.38;0.95;;;14.90;99.90;;;;;;4925065;28;87801;-77
2023/11/01 10:38:35;;;;;;;4.57;1.00;;;14.90;99.90;;;;;;4924630;28;88070;-76
2023/11/01 10:41:03;;;;;;;6.15;1.23;;;14.80;99.90;;;;;;4924385;28;88326;-77
2023/11/01 10:43:30;;;;;;;3.17;0.80;;;14.90;99.90;;;;;;4925150;28;88456;-76
2023/11/01 10:46:00;;;;;;;6.03;0.80;;;14.90;99.90;;;;;;4921952;28;88228;-77
2023/11/01 10:48:27;;;;;;;8.27;1.23;;;14.90;99.90;;;;;;4922733;28;88460;-78
2023/11/01 10:50:56;;;;;;;12.65;1.45;;;14.90;99.90;;;;;;4920791;28;92198;-77
2023/11/01 10:53:23;;;;;;;11.52;1.25;;;15.00;99.90;;;;;;4924568;28;90193;-75
2023/11/01 10:55:53;;;;;;;5.93;1.08;;;15.00;99.90;;;;;;4921371;28;88244;-77
2023/11/01 10:58:27;;;;;;;9.60;1.17;;;15.10;99.90;;;;;;4905991;28;94993;-76
2023/11/01 11:01:04;;;;;;;7.38;1.25;;;15.10;99.90;;;;;;4914941;28;90328;-78
2023/11/01 11:03:33;;;;;;;5.40;0.75;;;15.20;99.90;;;;;;4924016;28;88424;-77
2023/11/01 11:06:15;;;;;;;7.03;1.00;;;15.20;99.90;;;;;;4921999;28;88237;-77
2023/11/01 11:08:41;;;;;;;6.38;1.35;;;15.20;99.90;;;;;;4921984;28;90661;-77
2023/11/01 11:11:17;;;;;;;8.90;1.75;;;15.30;99.90;;;;;;4921510;28;90427;-76
2023/11/01 11:13:42;;;;;;;8.73;1.10;;;15.30;99.90;;;;;;4921216;28;88326;-77
2023/11/01 11:16:12;;;;;;;7.20;0.80;;;15.30;99.90;;;;;;4911215;28;90161;-77
2023/11/01 11:18:44;;;;;;;6.78;1.02;;;15.30;99.90;;;;;;4912113;28;88554;-76
2023/11/01 11:21:45;;;;;;;4.88;0.85;;;15.40;99.90;;;;;;4936008;28;91899;-76
2023/11/01 11:24:39;;;;;;;7.38;1.70;;;15.40;99.90;;;;;;4922338;28;88015;-77
2023/11/01 11:27:05;;;;;;;4.82;0.80;;;15.40;99.90;;;;;;4922686;28;88080;-77
2023/11/01 11:29:50;;;;;;;4.00;1.05;;;15.40;99.90;;;;;;4923202;28;88277;-75
2023/11/01 11:32:21;;;;;;;7.55;1.08;;;15.40;99.90;;;;;;4903936;28;93965;-76
2023/11/01 11:34:47;;;;;;;4.45;0.88;;;15.40;99.90;;;;;;4896105;28;88069;-77
2023/11/01 11:37:15;;;;;;;8.98;0.90;;;15.40;99.90;;;;;;4903848;28;87942;-75
2023/11/01 11:40:10;;;;;;;6.95;0.80;;;15.40;99.90;;;;;;4903171;28;88256;-75
2023/11/01 11:42:44;;;;;;;6.05;0.95;;;15.50;99.90;;;;;;4888880;28;90857;-76
2023/11/01 11:45:10;;;;;;;5.05;0.98;;;15.50;99.90;;;;;;4902782;28;93045;-75
2023/11/01 11:47:36;;;;;;;7.43;0.98;;;15.50;99.90;;;;;;4904092;28;88406;-75
2023/11/01 11:50:08;;;;;;;3.88;0.90;;;15.50;99.90;;;;;;4900874;28;90390;-74
2023/11/01 11:52:35;;;;;;;7.20;0.83;;;15.50;99.90;;;;;;4902272;28;92844;-75
2023/11/01 11:55:02;;;;;;;3.75;0.70;;;15.50;99.90;;;;;;4903712;28;90419;-75
2023/11/01 11:57:29;;;;;;;7.38;0.90;;;15.60;99.90;;;;;;4904093;28;88361;-72
2023/11/01 12:00:07;;;;;;;4.03;0.57;;;15.50;99.90;;;;;;4903354;28;87123;-72
2023/11/01 12:02:37;;;;;;;7.50;0.90;;;15.50;99.90;;;;;;4905446;28;88233;-71
2023/11/01 12:05:04;;;;;;;6.25;0.70;;;15.50;99.90;;;;;;4923687;28;92900;-72
2023/11/01 12:07:30;;;;;;;5.38;0.93;;;15.60;99.90;;;;;;4937159;28;89156;-73
2023/11/01 12:09:56;;;;;;;6.22;0.80;;;15.60;99.90;;;;;;4921971;28;87614;-73
2023/11/01 12:12:24;;;;;;;7.20;0.90;;;15.60;99.90;;;;;;4919098;28;90307;-73
2023/11/01 12:15:00;;;;;;;4.55;0.93;;;15.60;99.90;;;;;;4919248;28;90196;-73
2023/11/01 12:17:28;;;;;;;8.30;0.90;;;15.60;99.90;;;;;;4923229;28;87678;-73
2023/11/01 12:19:54;;;;;;;4.63;0.80;;;15.60;99.90;;;;;;4914316;28;89483;-73
2023/11/01 12:22:20;;;;;;;8.95;0.98;;;15.50;99.90;;;;;;4903507;28;89752;-72
2023/11/01 12:24:55;;;;;;;6.60;0.80;;;15.50;99.90;;;;;;4901182;28;88794;-73
2023/11/01 12:27:29;;;;;;;3.38;0.63;;;15.50;99.90;;;;;;4891852;28;88138;-73
2023/11/01 12:29:55;;;;;;;5.07;0.50;;;15.40;99.90;;;;;;4898018;28;88351;-74
2023/11/01 12:32:24;;;;;;;12.43;1.10;;;15.40;99.90;;;;;;4914885;28;92564;-75
2023/11/01 12:34:50;;;;;;;4.00;1.17;;;15.40;99.90;;;;;;4899022;28;92464;-73
2023/11/01 12:37:28;;;;;;;4.68;0.80;;;15.40;99.90;;;;;;4901848;28;89009;-73
2023/11/01 12:40:12;;;;;;;4.75;1.10;;;15.40;99.90;;;;;;4901073;28;88658;-73
2023/11/01 12:42:49;;;;;;;3.65;0.75;;;15.40;99.90;;;;;;4922727;28;91745;-75
2023/11/01 12:45:17;;;;;;;3.25;0.50;;;15.40;99.90;;;;;;4912790;28;92237;-75